Time;durP1;ratioP1;P1;durP2;ratioP2;P2;SDS_P1;SDS_P2;PMS_P1;PMS_P2;Temp;Humidity;BMP_temperature;BMP_pressure;BME280_temperature;BME280_humidity;BME280_pressure;Samples;Min_cycle;Max_cycle;Signal;HPM_P1;HPM_P2
2022/08/19 04:07:08;;;;;;;;;;;;;;;21.58;79.96;96669.94;4221848;27;10215;-62
2022/08/19 04:09:12;;;;;;;;;;;;;;;21.86;79.63;96672.16;4214838;28;5631;-61
2022/08/19 04:11:20;;;;;;;;;;;;;;;22.10;79.00;96671.66;4229629;28;5613;-62
2022/08/19 04:13:55;;;;;;;;;;;;;;;22.29;78.38;96672.72;4230671;28;5613;-61
2022/08/19 04:15:58;;;;;;;;;;;;;;;22.42;77.88;96671.34;4231345;28;5613;-62
2022/08/19 04:18:01;;;;;;;;;;;;;;;22.52;77.41;96677.53;4231520;28;5684;-62
2022/08/19 04:20:04;;;;;;;;;;;;;;;22.60;76.95;96682.38;4231452;28;5641;-62
2022/08/19 04:22:11;;;;;;;;;;;;;;;22.66;76.47;96672.41;4231634;28;5720;-62
2022/08/19 04:24:15;;;;;;;;;;;;;;;22.72;76.37;96674.00;4214881;28;5710;-62
2022/08/19 04:26:21;;;;;;;;;;;;;;;22.80;76.32;96680.72;4214110;28;5624;-61
2022/08/19 04:28:26;;;;;;;;;;;;;;;22.81;75.90;96682.34;4214650;28;5639;-62
2022/08/19 04:30:28;;;;;;;;;;;;;;;22.84;75.86;96681.81;4214491;28;5640;-62
2022/08/19 04:32:31;;;;;;;;;;;;;;;22.87;75.47;96686.66;4223672;28;5680;-62
2022/08/19 04:34:34;;;;;;;;;;;;;;;22.87;75.46;96686.66;4227595;28;5688;-62
2022/08/19 04:36:39;;;;;;;;;;;;;;;22.90;75.53;96688.81;4227759;28;5616;-62
2022/08/19 04:38:43;;;;;;;;;;;;;;;22.92;75.08;96689.34;4226586;28;5680;-62
2022/08/19 04:43:08;;;;;;;;;;;;;;;22.95;75.07;96694.97;4228889;28;5704;-62
2022/08/19 04:45:13;;;;;;;;;;;;;;;22.97;74.63;96696.59;4228292;28;5803;-62
2022/08/19 04:47:19;;;;;;;;;;;;;;;22.98;75.04;96692.81;4218587;28;5154;-62
2022/08/19 04:49:42;;;;;;;;;;;;;;;22.96;74.79;96698.47;4223158;28;5818;-63
2022/08/19 04:51:47;;;;;;;;;;;;;;;22.94;74.73;96697.97;4213630;28;5651;-63
2022/08/19 04:53:52;;;;;;;;;;;;;;;22.92;74.46;96692.84;4226284;28;5684;-63
2022/08/19 04:55:57;;;;;;;;;;;;;;;22.90;74.10;96696.91;4216743;28;6325;-63
2022/08/19 04:58:01;;;;;;;;;;;;;;;22.91;74.47;96710.09;4220434;28;5751;-63
2022/08/19 05:00:05;;;;;;;;;;;;;;;22.94;74.18;96708.75;4228056;28;5616;-63
2022/08/19 05:02:10;;;;;;;;;;;;;;;22.94;73.95;96703.34;4222249;28;5707;-63
2022/08/19 05:04:13;;;;;;;;;;;;;;;22.95;73.55;96716.56;4207280;28;7711;-63
2022/08/19 05:06:18;;;;;;;;;;;;;;;22.95;73.82;96710.34;4222856;28;5754;-63
2022/08/19 05:08:22;;;;;;;;;;;;;;;22.94;73.32;96719.53;4217917;28;5816;-63
2022/08/19 05:10:38;;;;;;;;;;;;;;;22.94;73.67;96720.31;4219199;28;5637;-63
2022/08/19 05:12:41;;;;;;;;;;;;;;;22.94;73.58;96724.91;4219165;28;5617;-63
2022/08/19 05:14:44;;;;;;;;;;;;;;;22.98;73.29;96728.66;4219185;28;5609;-62
2022/08/19 05:16:47;;;;;;;;;;;;;;;23.00;72.94;96731.94;4219189;28;5695;-62
2022/08/19 05:23:35;;;;;;;;;;;;;;;23.01;72.77;96730.84;4219039;28;5621;-63
2022/08/19 05:25:40;;;;;;;;;;;;;;;23.02;72.59;96737.84;4218713;28;5613;-62
2022/08/19 05:27:43;;;;;;;;;;;;;;;23.01;72.32;96741.63;4200733;28;5776;-62
2022/08/19 05:29:46;;;;;;;;;;;;;;;22.99;72.14;96743.78;4200912;28;5814;-62
2022/08/19 05:31:50;;;;;;;;;;;;;;;22.98;72.08;96746.72;4219543;28;5703;-62
2022/08/19 05:33:53;;;;;;;;;;;;;;;22.99;72.27;96753.72;4219093;28;5717;-62
2022/08/19 05:35:56;;;;;;;;;;;;;;;22.98;71.95;96760.22;4218976;28;5609;-62
2022/08/19 05:37:59;;;;;;;;;;;;;;;22.96;71.75;96755.09;4219022;28;6032;-62
2022/08/19 05:40:02;;;;;;;;;;;;;;;22.95;71.74;96761.56;4218963;28;5641;-62
2022/08/19 05:42:09;;;;;;;;;;;;;;;22.95;71.81;96759.69;4218817;28;5200;-66
2022/08/19 05:44:13;;;;;;;;;;;;;;;22.93;71.91;96753.75;4219014;28;5613;-67
2022/08/19 05:46:19;;;;;;;;;;;;;;;22.92;71.70;96754.03;4191381;28;5658;-66
2022/08/19 05:48:30;;;;;;;;;;;;;;;22.91;71.53;96755.94;4215556;28;5704;-66
2022/08/19 05:50:33;;;;;;;;;;;;;;;22.88;71.57;96758.38;4219001;28;5625;-66
2022/08/19 05:52:38;;;;;;;;;;;;;;;22.88;71.23;96763.75;4218810;28;5609;-66
2022/08/19 05:54:51;;;;;;;;;;;;;;;22.89;71.34;96759.97;4218760;28;5733;-66
2022/08/19 05:56:54;;;;;;;;;;;;;;;22.86;71.43;96757.81;4218633;28;5733;-66
2022/08/19 05:58:59;;;;;;;;;;;;;;;22.86;71.08;96755.13;4218657;28;5621;-66
2022/08/19 06:01:05;;;;;;;;;;;;;;;22.85;70.96;96764.28;4218676;28;5624;-66
2022/08/19 06:03:07;;;;;;;;;;;;;;;22.84;70.81;96762.66;4218410;28;5624;-66
2022/08/19 06:05:14;;;;;;;;;;;;;;;22.84;70.75;96768.06;4201760;28;8408;-66
2022/08/19 06:07:17;;;;;;;;;;;;;;;22.84;70.73;96773.44;4201681;28;5699;-67
2022/08/19 06:09:21;;;;;;;;;;;;;;;22.83;70.89;96771.81;4201926;28;6400;-65
2022/08/19 06:11:35;;;;;;;;;;;;;;;22.82;71.01;96780.97;4201677;28;5723;-66
2022/08/19 06:13:38;;;;;;;;;;;;;;;22.82;70.54;96780.97;4204258;28;5639;-66
2022/08/19 06:15:44;;;;;;;;;;;;;;;22.82;70.61;96783.66;4218656;28;5620;-66
2022/08/19 06:17:46;;;;;;;;;;;;;;;22.82;70.45;96789.06;4218260;28;5609;-66
2022/08/19 06:19:50;;;;;;;;;;;;;;;22.83;70.77;96787.97;4217941;28;5707;-66
2022/08/19 06:21:53;;;;;;;;;;;;;;;22.83;70.53;96798.75;4218112;28;5613;-66
2022/08/19 06:23:57;;;;;;;;;;;;;;;22.82;70.75;96797.16;4218313;28;5621;-66
2022/08/19 06:26:00;;;;;;;;;;;;;;;22.80;70.75;96797.41;4216868;28;5639;-67
2022/08/19 06:28:03;;;;;;;;;;;;;;;22.80;70.28;96794.72;4217815;28;5617;-66
2022/08/19 06:30:16;;;;;;;;;;;;;;;22.81;70.31;96801.72;4200122;28;5635;-66
2022/08/19 06:32:21;;;;;;;;;;;;;;;22.82;70.42;96806.03;4218565;28;5851;-66
2022/08/19 06:34:25;;;;;;;;;;;;;;;22.81;70.18;96809.00;4217790;28;5692;-66
2022/08/19 06:36:33;;;;;;;;;;;;;;;22.82;70.35;96810.63;4190843;28;5789;-66
2022/08/19 06:38:36;;;;;;;;;;;;;;;22.83;69.93;96798.75;4218172;28;5677;-66
2022/08/19 06:40:39;;;;;;;;;;;;;;;22.83;70.27;96802.28;4218142;28;5761;-64
2022/08/19 06:42:42;;;;;;;;;;;;;;;22.83;70.32;96807.69;4195972;28;5862;-64
2022/08/19 06:44:57;;;;;;;;;;;;;;;22.84;70.09;96816.56;4216869;28;5725;-64
2022/08/19 06:47:02;;;;;;;;;;;;;;;22.82;69.99;96822.22;4215208;28;5695;-64
2022/08/19 06:49:18;;;;;;;;;;;;;;;22.81;69.96;96817.91;4218171;28;5630;-64
2022/08/19 06:51:23;;;;;;;;;;;;;;;22.80;70.17;96827.06;4213179;28;5680;-64
2022/08/19 06:53:27;;;;;;;;;;;;;;;22.82;69.86;96824.09;4217800;28;5617;-64
2022/08/19 06:55:31;;;;;;;;;;;;;;;22.81;69.68;96822.47;4211284;28;5636;-64
2022/08/19 06:57:35;;;;;;;;;;;;;;;22.81;69.80;96831.38;4214858;28;5680;-64
2022/08/19 06:59:38;;;;;;;;;;;;;;;22.81;69.87;96830.56;4216212;28;5695;-63
2022/08/19 07:01:45;;;;;;;;;;;;;;;22.80;69.79;96832.44;4216556;28;5692;-63
2022/08/19 07:03:48;;;;;;;;;;;;;;;22.79;69.86;96830.84;4215867;28;5750;-64
2022/08/19 07:05:53;;;;;;;;;;;;;;;22.79;69.56;96832.72;4216310;28;5867;-63
2022/08/19 07:07:57;;;;;;;;;;;;;;;22.79;69.41;96830.03;4208175;28;5616;-63
2022/08/19 07:10:08;;;;;;;;;;;;;;;22.81;69.66;96833.25;4205312;28;5864;-63
2022/08/19 07:12:14;;;;;;;;;;;;;;;22.83;69.71;96847.28;4216830;28;5621;-64
2022/08/19 07:14:19;;;;;;;;;;;;;;;22.83;69.47;96836.50;4217637;28;5624;-63
2022/08/19 07:16:22;;;;;;;;;;;;;;;22.84;69.18;96846.22;4215792;28;5600;-63
2022/08/19 07:18:31;;;;;;;;;;;;;;;22.82;69.03;96842.97;4217058;28;5710;-63
2022/08/19 07:20:35;;;;;;;;;;;;;;;22.84;69.44;96851.63;4215924;28;5674;-63
2022/08/19 07:22:40;;;;;;;;;;;;;;;22.85;69.03;96855.91;4216935;28;5829;-64
2022/08/19 07:24:43;;;;;;;;;;;;;;;22.84;68.97;96855.13;4217332;28;5624;-63
2022/08/19 07:26:56;;;;;;;;;;;;;;;22.84;68.92;96852.41;4216540;28;6056;-63
2022/08/19 07:29:01;;;;;;;;;;;;;;;22.86;68.70;96857.53;4217428;28;5782;-63
2022/08/19 07:31:08;;;;;;;;;;;;;;;22.86;68.71;96862.94;4214804;28;5738;-63
2022/08/19 07:33:11;;;;;;;;;;;;;;;22.87;68.40;96856.44;4216709;28;5609;-63
2022/08/19 07:35:19;;;;;;;;;;;;;;;22.87;68.69;96859.16;4217130;28;5625;-63
2022/08/19 07:37:22;;;;;;;;;;;;;;;22.87;68.39;96854.56;4217262;28;5624;-63
2022/08/19 07:39:29;;;;;;;;;;;;;;;22.87;68.56;96854.56;4215118;28;5789;-63
2022/08/19 07:41:32;;;;;;;;;;;;;;;22.88;68.15;96850.00;4214213;28;5741;-63
2022/08/19 07:43:35;;;;;;;;;;;;;;;22.90;68.48;96859.44;4217126;28;5676;-63
2022/08/19 07:45:38;;;;;;;;;;;;;;;22.92;68.26;96864.56;4215901;28;5609;-63
2022/08/19 07:47:43;;;;;;;;;;;;;;;22.92;68.21;96861.84;4216336;28;5624;-64
2022/08/19 07:50:00;;;;;;;;;;;;;;;22.95;68.06;96866.72;4215783;28;5620;-63
2022/08/19 07:52:08;;;;;;;;;;;;;;;22.96;67.93;96860.22;4213964;28;5624;-63
2022/08/19 07:54:11;;;;;;;;;;;;;;;22.99;68.11;96861.56;4211516;28;5620;-62
2022/08/19 07:56:16;;;;;;;;;;;;;;;23.03;67.57;96857.28;4199881;28;5710;-63
2022/08/19 07:58:22;;;;;;;;;;;;;;;23.04;67.50;96865.09;4213251;28;5613;-63
2022/08/19 08:00:26;;;;;;;;;;;;;;;23.05;67.60;96868.59;4215760;28;5654;-64
2022/08/19 08:02:29;;;;;;;;;;;;;;;23.04;67.48;96865.09;4216848;28;5797;-63
2022/08/19 08:09:20;;;;;;;;;;;;;;;23.02;67.93;96869.94;4191388;28;5764;-63
2022/08/19 08:11:29;;;;;;;;;;;;;;;23.03;67.48;96881.53;4198647;28;6875;-63
2022/08/19 08:13:34;;;;;;;;;;;;;;;23.03;67.52;96879.66;4200079;28;5661;-63
2022/08/19 08:15:39;;;;;;;;;;;;;;;23.05;67.41;96880.19;4196888;28;5796;-63
2022/08/19 08:17:45;;;;;;;;;;;;;;;23.06;67.58;96873.72;4190152;28;5683;-63
2022/08/19 08:19:54;;;;;;;;;;;;;;;23.06;67.51;96878.28;4193810;28;5706;-63
2022/08/19 08:21:59;;;;;;;;;;;;;;;23.07;67.45;96878.03;4184432;28;5787;-64
2022/08/19 08:24:00;;;;;;;;;;;;;;;23.08;67.47;96874.25;4183135;28;5664;-64
2022/08/19 08:26:04;;;;;;;;;;;;;;;23.10;67.19;96874.78;4183343;28;5695;-63
2022/08/19 08:28:08;;;;;;;;;;;;;;;23.10;67.37;96879.34;4183068;28;5682;-63
2022/08/19 08:30:22;;;;;;;;;;;;;;;23.11;67.75;96884.50;4183665;28;5773;-63
2022/08/19 08:32:25;;;;;;;;;;;;;;;23.11;67.16;96884.50;4183621;28;5694;-63
2022/08/19 08:34:28;;;;;;;;;;;;;;;23.12;67.20;96883.44;4183250;28;5770;-63
2022/08/19 08:36:33;;;;;;;;;;;;;;;23.14;67.10;96886.66;4183430;28;5704;-63
2022/08/19 08:38:37;;;;;;;;;;;;;;;23.16;67.30;96889.88;4196157;28;5721;-64
2022/08/19 08:40:48;;;;;;;;;;;;;;;23.19;66.90;96886.63;4199805;28;6091;-64
2022/08/19 08:43:00;;;;;;;;;;;;;;;23.21;67.29;96897.97;4197765;28;6355;-63
2022/08/19 08:45:14;;;;;;;;;;;;;;;23.24;67.20;96897.44;4203152;28;5661;-64
2022/08/19 08:47:21;;;;;;;;;;;;;;;23.30;67.53;96900.13;4203074;28;5654;-63
2022/08/19 08:49:42;;;;;;;;;;;;;;;23.33;66.92;96903.09;4170046;28;5714;-64
2022/08/19 08:51:49;;;;;;;;;;;;;;;23.35;67.30;96902.81;4177340;28;5694;-64
2022/08/19 08:54:07;;;;;;;;;;;;;;;23.33;66.70;96911.19;4185314;28;5695;-64
2022/08/19 08:56:13;;;;;;;;;;;;;;;23.35;66.73;96909.03;4186112;28;5682;-65
2022/08/19 08:58:29;;;;;;;;;;;;;;;23.36;66.85;96916.03;4185699;28;5883;-65
2022/08/19 09:00:37;;;;;;;;;;;;;;;23.35;66.51;96905.53;4183153;28;5744;-66
2022/08/19 09:02:40;;;;;;;;;;;;;;;23.38;66.91;96913.06;4183612;28;5846;-65
2022/08/19 09:04:46;;;;;;;;;;;;;;;23.44;66.81;96906.56;4185324;28;5694;-63
2022/08/19 09:06:59;;;;;;;;;;;;;;;23.49;66.43;96909.28;4214554;28;5621;-64
2022/08/19 09:09:06;;;;;;;;;;;;;;;23.50;66.63;96911.69;4211380;28;5673;-65
2022/08/19 09:11:20;;;;;;;;;;;;;;;23.51;66.45;96918.69;4213660;28;5621;-65
2022/08/19 09:13:53;;;;;;;;;;;;;;;23.51;66.31;96923.28;4203619;28;5709;-65
2022/08/19 09:16:03;;;;;;;;;;;;;;;23.52;66.05;96930.31;4218904;28;5482;-64
2022/08/19 09:18:06;;;;;;;;;;;;;;;23.49;66.53;96930.84;4210305;28;5620;-62
2022/08/19 09:20:18;;;;;;;;;;;;;;;23.46;66.47;96934.09;4200984;28;5731;-61
2022/08/19 09:22:22;;;;;;;;;;;;;;;23.45;66.22;96925.19;4219462;28;5612;-62
2022/08/19 09:24:27;;;;;;;;;;;;;;;23.47;66.13;96933.03;4215951;28;5729;-62
2022/08/19 09:26:34;;;;;;;;;;;;;;;23.46;66.15;96931.41;4218429;28;5609;-62
2022/08/19 09:28:55;;;;;;;;;;;;;;;23.47;66.59;96939.22;4218440;28;5727;-63
2022/08/19 09:31:01;;;;;;;;;;;;;;;23.48;66.15;96935.44;4213665;28;5796;-75
2022/08/19 09:33:04;;;;;;;;;;;;;;;23.49;66.60;96944.34;4203099;28;5683;-74
2022/08/19 09:35:08;;;;;;;;;;;;;;;23.49;66.28;96941.66;4202213;28;6357;-64
2022/08/19 09:37:14;;;;;;;;;;;;;;;23.49;66.30;96941.66;4216178;28;5727;-63
2022/08/19 09:39:17;;;;;;;;;;;;;;;23.48;66.82;96945.44;4219083;28;5794;-62
2022/08/19 09:41:22;;;;;;;;;;;;;;;23.47;66.16;96943.81;4218856;28;5814;-64
2022/08/19 09:43:25;;;;;;;;;;;;;;;23.45;66.53;96957.56;4218428;28;5829;-67
2022/08/19 09:45:35;;;;;;;;;;;;;;;23.44;66.27;96950.56;4219254;28;5720;-66
2022/08/19 09:47:39;;;;;;;;;;;;;;;23.46;66.52;96953.00;4218672;28;5751;-64
2022/08/19 09:49:42;;;;;;;;;;;;;;;23.49;66.11;96957.84;4218780;28;5718;-63
2022/08/19 09:51:47;;;;;;;;;;;;;;;23.52;66.57;96954.59;4218829;28;5628;-63
2022/08/19 09:53:54;;;;;;;;;;;;;;;23.53;66.31;96959.69;4218567;28;5633;-62
2022/08/19 09:55:57;;;;;;;;;;;;;;;23.54;66.14;96960.50;4218768;28;5692;-63
2022/08/19 09:58:01;;;;;;;;;;;;;;;23.54;65.98;96960.50;4218342;28;6317;-63
2022/08/19 10:00:07;;;;;;;;;;;;;;;23.57;65.86;96959.19;4218321;28;5616;-63
2022/08/19 10:02:10;;;;;;;;;;;;;;;23.60;65.99;96959.47;4218581;28;5760;-63
2022/08/19 10:04:16;;;;;;;;;;;;;;;23.62;65.78;96956.50;4218506;28;5624;-63
2022/08/19 10:06:25;;;;;;;;;;;;;;;23.64;66.04;96970.53;4217145;28;5689;-70
2022/08/19 10:08:49;;;;;;;;;;;;;;;23.68;65.92;96972.41;4215434;28;5693;-63
2022/08/19 10:10:53;;;;;;;;;;;;;;;23.69;65.70;96968.63;4201728;28;5625;-63
2022/08/19 10:12:56;;;;;;;;;;;;;;;23.70;65.91;96959.47;4192379;28;5667;-62
2022/08/19 10:14:59;;;;;;;;;;;;;;;23.74;65.42;96965.91;4218443;28;5620;-62
2022/08/19 10:17:02;;;;;;;;;;;;;;;23.77;65.54;96953.75;4213046;28;5280;-62
2022/08/19 10:19:23;;;;;;;;;;;;;;;23.80;65.36;96964.84;4218380;28;5605;-62
2022/08/19 10:21:29;;;;;;;;;;;;;;;23.84;65.63;96961.59;4206694;28;5735;-62
2022/08/19 10:23:34;;;;;;;;;;;;;;;23.86;65.27;96957.53;4201649;28;5639;-62
2022/08/19 10:25:37;;;;;;;;;;;;;;;23.91;65.67;96964.81;4201180;28;5652;-62
2022/08/19 10:27:40;;;;;;;;;;;;;;;23.93;65.28;96971.56;4201172;28;5752;-64
2022/08/19 10:29:47;;;;;;;;;;;;;;;23.95;65.17;96963.19;4201520;28;5628;-64
2022/08/19 10:31:50;;;;;;;;;;;;;;;23.98;65.40;96971.53;4201407;28;6408;-64
2022/08/19 10:34:04;;;;;;;;;;;;;;;23.99;65.56;96967.75;4189836;28;5639;-62
2022/08/19 10:36:14;;;;;;;;;;;;;;;24.02;65.53;96967.22;4217291;28;5755;-63
2022/08/19 10:38:21;;;;;;;;;;;;;;;24.09;65.19;96972.31;4218119;28;6293;-67
2022/08/19 10:40:33;;;;;;;;;;;;;;;24.12;65.33;96974.44;4217956;28;5597;-61
2022/08/19 10:42:36;;;;;;;;;;;;;;;24.14;65.18;96968.81;4217618;28;5676;-63
2022/08/19 10:44:39;;;;;;;;;;;;;;;24.15;65.24;96970.41;4216069;28;5676;-64
2022/08/19 10:46:44;;;;;;;;;;;;;;;24.15;64.84;96970.41;4200930;28;5647;-64
2022/08/19 10:48:51;;;;;;;;;;;;;;;24.13;64.89;96968.00;4213660;28;5955;-63
2022/08/19 10:53:26;;;;;;;;;;;;;;;24.14;64.85;96974.19;4214905;28;5675;-63
2022/08/19 10:57:50;;;;;;;;;;;;;;;24.20;64.24;96983.88;4209895;28;5703;-63
2022/08/19 11:00:05;;;;;;;;;;;;;;;24.19;64.25;96974.97;4204892;28;5768;-63
2022/08/19 11:02:11;;;;;;;;;;;;;;;24.21;64.40;96980.91;4212730;28;6053;-63
2022/08/19 11:04:17;;;;;;;;;;;;;;;24.23;64.49;96988.72;4207624;28;5722;-64
2022/08/19 11:06:20;;;;;;;;;;;;;;;24.22;64.63;96979.81;4207509;28;5716;-59
2022/08/19 11:08:24;;;;;;;;;;;;;;;24.23;63.96;96984.13;4211674;28;5763;-67
2022/08/19 11:10:28;;;;;;;;;;;;;;;24.26;64.21;96980.91;4212963;28;5919;-65
2022/08/19 11:12:32;;;;;;;;;;;;;;;24.28;64.38;96983.31;4203232;28;5827;-64
2022/08/19 11:14:36;;;;;;;;;;;;;;;24.23;63.91;96981.44;4200511;28;5803;-61
2022/08/19 11:16:39;;;;;;;;;;;;;;;24.22;63.83;96979.81;4216889;28;5747;-60
2022/08/19 11:18:44;;;;;;;;;;;;;;;24.24;63.99;96976.88;4217154;28;5621;-63
2022/08/19 11:20:47;;;;;;;;;;;;;;;24.24;63.90;96980.38;4206120;28;5605;-62
2022/08/19 11:22:52;;;;;;;;;;;;;;;24.27;63.88;96979.00;4217294;28;5628;-65
2022/08/19 11:24:55;;;;;;;;;;;;;;;24.25;63.93;96975.78;4217053;28;5640;-70
2022/08/19 11:27:04;;;;;;;;;;;;;;;24.25;63.59;96981.19;4216745;28;5817;-66
2022/08/19 11:29:11;;;;;;;;;;;;;;;24.24;63.52;96980.38;4217430;28;5060;-60
2022/08/19 11:31:16;;;;;;;;;;;;;;;24.24;63.40;96983.06;4211060;28;5742;-64
2022/08/19 11:33:19;;;;;;;;;;;;;;;24.25;63.71;96976.59;4200601;28;5821;-62
2022/08/19 11:35:23;;;;;;;;;;;;;;;24.28;63.76;96977.91;4207395;28;5613;-66
2022/08/19 11:37:26;;;;;;;;;;;;;;;24.31;63.60;96983.59;4216465;28;5112;-65
2022/08/19 11:39:31;;;;;;;;;;;;;;;24.36;63.63;96988.19;4207878;28;5754;-66
2022/08/19 11:41:35;;;;;;;;;;;;;;;24.39;63.39;96988.44;4204334;28;7647;-62
2022/08/19 11:43:39;;;;;;;;;;;;;;;24.43;63.28;96990.59;4215751;28;5704;-62
2022/08/19 11:45:42;;;;;;;;;;;;;;;24.41;63.21;96995.47;4217009;28;5612;-65
2022/08/19 11:47:46;;;;;;;;;;;;;;;24.42;63.38;96992.47;4216858;28;5729;-64
2022/08/19 11:49:49;;;;;;;;;;;;;;;24.44;63.12;96989.50;4214488;28;5748;-64
2022/08/19 11:51:53;;;;;;;;;;;;;;;24.46;63.11;96995.44;4211091;28;5616;-64
2022/08/19 11:53:57;;;;;;;;;;;;;;;24.46;63.10;96992.72;4215713;28;6318;-64
2022/08/19 11:56:00;;;;;;;;;;;;;;;24.45;63.15;96991.09;4216991;28;5708;-64
2022/08/19 11:58:05;;;;;;;;;;;;;;;24.46;63.26;96998.13;4216089;28;5733;-64
2022/08/19 12:00:22;;;;;;;;;;;;;;;24.43;63.04;96999.50;4216871;28;5684;-64
2022/08/19 12:02:25;;;;;;;;;;;;;;;24.44;63.01;97000.31;4215246;28;5633;-64
2022/08/19 12:04:28;;;;;;;;;;;;;;;24.41;62.84;96995.47;4220138;28;5770;-65
2022/08/19 12:06:34;;;;;;;;;;;;;;;24.38;63.13;96991.44;4221219;28;5768;-64
2022/08/19 12:08:38;;;;;;;;;;;;;;;24.36;63.07;96994.41;4212840;28;5617;-64
2022/08/19 12:10:41;;;;;;;;;;;;;;;24.36;62.80;96993.59;4216413;28;5687;-64
2022/08/19 12:12:45;;;;;;;;;;;;;;;24.42;62.82;96987.06;4209378;28;5715;-63
2022/08/19 12:14:58;;;;;;;;;;;;;;;24.43;62.81;96985.19;4216965;28;5636;-63
2022/08/19 12:17:04;;;;;;;;;;;;;;;24.44;62.63;96984.09;4208301;28;5755;-64
2022/08/19 12:19:08;;;;;;;;;;;;;;;24.43;62.40;96982.47;4203662;28;5675;-64
2022/08/19 12:21:13;;;;;;;;;;;;;;;24.42;62.48;96986.25;4210661;28;5730;-64
2022/08/19 12:23:17;;;;;;;;;;;;;;;24.37;62.60;96982.50;4220440;28;5625;-65
2022/08/19 12:25:20;;;;;;;;;;;;;;;24.33;62.57;96983.31;4219905;28;5814;-64
2022/08/19 12:27:25;;;;;;;;;;;;;;;24.34;62.55;96983.03;4219583;28;5621;-64
2022/08/19 12:29:42;;;;;;;;;;;;;;;24.32;62.37;96982.50;4220289;28;5725;-64
2022/08/19 12:31:45;;;;;;;;;;;;;;;24.32;62.34;96979.81;4220070;28;5652;-65
2022/08/19 12:33:52;;;;;;;;;;;;;;;24.31;62.19;96985.50;4220062;28;5672;-64
2022/08/19 12:35:55;;;;;;;;;;;;;;;24.29;62.17;96985.75;4219990;28;5613;-65
2022/08/19 12:37:58;;;;;;;;;;;;;;;24.28;62.04;96986.84;4220160;28;5622;-64
2022/08/19 12:40:02;;;;;;;;;;;;;;;24.31;62.12;96991.72;4219892;28;5629;-64
2022/08/19 12:42:07;;;;;;;;;;;;;;;24.33;61.75;96994.94;4218522;28;5622;-65
2022/08/19 12:44:12;;;;;;;;;;;;;;;24.34;61.96;96999.25;4203004;28;5781;-65
2022/08/19 12:46:16;;;;;;;;;;;;;;;24.36;61.89;96994.41;4202971;28;5711;-65
2022/08/19 12:48:19;;;;;;;;;;;;;;;24.39;61.54;96993.84;4214913;28;5828;-64
2022/08/19 12:50:40;;;;;;;;;;;;;;;24.43;61.56;96993.28;4219106;28;5601;-64
2022/08/19 12:52:42;;;;;;;;;;;;;;;24.45;61.62;97001.91;4219922;28;5645;-64
2022/08/19 12:54:45;;;;;;;;;;;;;;;24.48;61.38;96993.28;4205991;28;5636;-64
2022/08/19 12:56:48;;;;;;;;;;;;;;;24.52;61.62;96997.84;4204248;28;5747;-64
2022/08/19 12:58:51;;;;;;;;;;;;;;;24.52;61.59;96999.75;4219860;28;5701;-64
2022/08/19 13:00:54;;;;;;;;;;;;;;;24.55;61.28;97007.28;4203739;28;5691;-64
2022/08/19 13:02:59;;;;;;;;;;;;;;;24.56;61.38;97003.50;4212256;28;5688;-65
2022/08/19 13:05:02;;;;;;;;;;;;;;;24.59;61.53;97002.97;4219653;28;5636;-65
2022/08/19 13:07:08;;;;;;;;;;;;;;;24.59;61.29;96992.16;4197255;28;5097;-65
2022/08/19 13:09:11;;;;;;;;;;;;;;;24.61;61.27;96989.97;4195465;28;5902;-65
2022/08/19 13:11:18;;;;;;;;;;;;;;;24.64;61.65;97000.22;4194960;28;5716;-66
2022/08/19 13:13:21;;;;;;;;;;;;;;;24.66;61.49;97004.25;4196995;28;6821;-65
2022/08/19 13:15:24;;;;;;;;;;;;;;;24.67;61.34;97002.34;4205741;28;5916;-65
2022/08/19 13:17:27;;;;;;;;;;;;;;;24.65;61.63;97002.63;4204160;28;5168;-65
2022/08/19 13:19:31;;;;;;;;;;;;;;;24.63;61.20;97002.13;4200137;28;5658;-65
2022/08/19 13:21:37;;;;;;;;;;;;;;;24.60;61.58;96997.28;4205471;28;5827;-65
2022/08/19 13:23:42;;;;;;;;;;;;;;;24.59;61.79;97000.25;4205965;28;5777;-65
2022/08/19 13:25:45;;;;;;;;;;;;;;;24.60;61.56;97004.56;4193090;28;5655;-65
2022/08/19 13:27:50;;;;;;;;;;;;;;;24.57;61.29;97000.50;4192317;28;5813;-65
2022/08/19 13:34:37;;;;;;;;;;;;;;;24.54;61.41;96994.84;4196800;28;5931;-64
2022/08/19 13:36:40;;;;;;;;;;;;;;;24.58;61.49;96993.22;4195746;28;5718;-64
2022/08/19 13:38:45;;;;;;;;;;;;;;;24.60;61.37;96996.47;4194841;28;5910;-64
2022/08/19 13:40:49;;;;;;;;;;;;;;;24.61;61.25;96992.66;4195229;28;5761;-64
2022/08/19 13:42:54;;;;;;;;;;;;;;;24.63;60.98;96994.00;4192430;28;5762;-64
2022/08/19 13:44:58;;;;;;;;;;;;;;;24.65;61.04;96988.31;4194188;28;5724;-64
2022/08/19 13:47:06;;;;;;;;;;;;;;;24.67;61.08;96986.94;4194297;28;5801;-64
2022/08/19 13:49:10;;;;;;;;;;;;;;;24.70;60.80;96982.09;4194055;28;5806;-64
2022/08/19 13:51:13;;;;;;;;;;;;;;;24.73;60.85;96986.94;4191641;28;5723;-64
2022/08/19 13:53:17;;;;;;;;;;;;;;;24.75;60.86;96996.38;4191910;28;5847;-65
2022/08/19 13:55:22;;;;;;;;;;;;;;;24.75;60.94;96985.56;4184742;28;5806;-65
2022/08/19 13:57:27;;;;;;;;;;;;;;;24.72;60.96;97001.53;4186182;28;5702;-64
2022/08/19 13:59:30;;;;;;;;;;;;;;;24.71;60.86;97002.63;4192930;28;5785;-65
2022/08/19 14:01:33;;;;;;;;;;;;;;;24.71;60.88;97000.72;4193130;28;7758;-65
2022/08/19 14:03:36;;;;;;;;;;;;;;;24.72;61.10;96998.84;4185615;28;5708;-65
2022/08/19 14:05:39;;;;;;;;;;;;;;;24.69;61.06;96997.50;4193467;28;5613;-65
2022/08/19 14:07:42;;;;;;;;;;;;;;;24.67;60.76;97002.34;4203589;28;5667;-65
2022/08/19 14:09:45;;;;;;;;;;;;;;;24.63;61.01;97004.00;4216415;28;5647;-65
2022/08/19 14:11:52;;;;;;;;;;;;;;;24.59;60.92;96997.56;4212319;28;5613;-65
2022/08/19 14:13:55;;;;;;;;;;;;;;;24.58;60.99;96991.34;4206438;28;5616;-65
2022/08/19 14:15:59;;;;;;;;;;;;;;;24.59;61.11;96992.94;4205193;28;5777;-64
2022/08/19 14:18:02;;;;;;;;;;;;;;;24.61;60.79;96992.66;4204938;28;5627;-65
2022/08/19 14:20:09;;;;;;;;;;;;;;;24.59;60.92;96992.16;4205042;28;5808;-64
2022/08/19 14:22:18;;;;;;;;;;;;;;;24.58;60.88;96996.75;4209581;28;5625;-64
2022/08/19 14:24:24;;;;;;;;;;;;;;;24.60;60.60;96999.16;4203722;28;5623;-64
2022/08/19 14:26:27;;;;;;;;;;;;;;;24.60;60.87;96993.75;4200813;28;5615;-65
2022/08/19 14:28:31;;;;;;;;;;;;;;;24.61;60.95;96992.66;4200738;28;8382;-64
2022/08/19 14:30:37;;;;;;;;;;;;;;;24.62;60.82;96991.59;4204118;28;5803;-64
2022/08/19 14:32:40;;;;;;;;;;;;;;;24.64;61.03;96992.09;4204791;28;6568;-65
2022/08/19 14:34:45;;;;;;;;;;;;;;;24.63;60.96;96982.38;4208297;28;5665;-64
2022/08/19 14:36:48;;;;;;;;;;;;;;;24.63;60.83;96994.00;4200818;28;5706;-64
2022/08/19 14:38:51;;;;;;;;;;;;;;;24.65;60.73;96991.03;4208648;28;6441;-65
2022/08/19 14:40:54;;;;;;;;;;;;;;;24.65;60.45;96999.13;4205139;28;5621;-64
2022/08/19 14:43:03;;;;;;;;;;;;;;;24.63;60.73;96998.59;4203853;28;5114;-64
2022/08/19 14:45:09;;;;;;;;;;;;;;;24.63;60.80;97002.13;4208942;28;5616;-64
2022/08/19 14:47:12;;;;;;;;;;;;;;;24.61;60.32;97000.78;4203742;28;6766;-64
2022/08/19 14:49:15;;;;;;;;;;;;;;;24.57;60.76;96994.28;4210234;28;5736;-64
2022/08/19 14:51:19;;;;;;;;;;;;;;;24.56;60.48;96998.88;4209180;28;5698;-64
2022/08/19 14:53:22;;;;;;;;;;;;;;;24.56;60.89;97004.28;4204568;28;5620;-64
2022/08/19 14:55:25;;;;;;;;;;;;;;;24.57;60.36;97000.50;4200660;28;5619;-64
2022/08/19 14:57:28;;;;;;;;;;;;;;;24.58;60.32;97006.75;4203269;28;5912;-62
2022/08/19 14:59:31;;;;;;;;;;;;;;;24.58;60.79;97009.44;4185212;28;5764;-62
2022/08/19 15:01:35;;;;;;;;;;;;;;;24.51;60.56;97012.44;4201616;28;5699;-62
2022/08/19 15:03:41;;;;;;;;;;;;;;;24.50;60.69;97016.22;4203454;28;5632;-66
2022/08/19 15:05:43;;;;;;;;;;;;;;;24.45;60.50;97018.94;4190389;28;5799;-62
2022/08/19 15:07:46;;;;;;;;;;;;;;;24.45;61.10;97018.13;4214499;28;5695;-62
2022/08/19 15:09:50;;;;;;;;;;;;;;;24.42;60.86;97024.09;4211329;28;5708;-62
2022/08/19 15:11:53;;;;;;;;;;;;;;;24.37;60.68;97017.63;4204146;28;5702;-61
2022/08/19 15:13:57;;;;;;;;;;;;;;;24.35;60.90;97021.69;4200176;28;5718;-62
2022/08/19 15:16:00;;;;;;;;;;;;;;;24.34;61.22;97022.75;4212591;28;5961;-66
2022/08/19 15:18:04;;;;;;;;;;;;;;;24.34;61.55;97028.97;4204124;28;5835;-64
2022/08/19 15:20:08;;;;;;;;;;;;;;;24.32;61.20;97020.34;4215211;28;5625;-65
2022/08/19 15:22:12;;;;;;;;;;;;;;;24.34;61.48;97028.97;4203041;28;5640;-63
2022/08/19 15:24:15;;;;;;;;;;;;;;;24.35;61.43;97030.63;4201836;28;5639;-63
2022/08/19 15:26:19;;;;;;;;;;;;;;;24.32;61.71;97028.44;4202422;28;5743;-64
2022/08/19 15:28:23;;;;;;;;;;;;;;;24.27;61.60;97031.16;4203180;28;5718;-65
2022/08/19 15:30:28;;;;;;;;;;;;;;;24.22;62.08;97020.34;4199845;28;5640;-64